createdAt,value
2022-08-05T00:07:59.762Z,24.47
2022-08-05T00:15:55.149Z,24.44
2022-08-05T00:23:15.753Z,24.35
2022-08-05T00:30:51.941Z,24.30
2022-08-05T00:38:28.860Z,24.22
2022-08-05T00:46:08.936Z,24.05
2022-08-05T00:54:01.375Z,23.94
2022-08-05T01:01:42.745Z,23.92
2022-08-05T01:09:22.855Z,23.87
2022-08-05T01:17:04.688Z,23.83
2022-08-05T01:25:23.661Z,23.74
2022-08-05T01:33:19.628Z,23.60
2022-08-05T01:40:55.274Z,23.51
2022-08-05T01:48:32.971Z,23.46
2022-08-05T01:56:09.077Z,23.31
2022-08-05T02:03:47.986Z,23.31
2022-08-05T02:11:24.037Z,23.31
2022-08-05T02:19:18.734Z,23.29
2022-08-05T02:26:56.401Z,23.27
2022-08-05T02:34:34.175Z,23.29
2022-08-05T02:42:09.363Z,23.22
2022-08-05T02:49:45.558Z,23.18
2022-08-05T02:58:10.736Z,23.11
2022-08-05T03:05:17.120Z,23.09
2022-08-05T03:20:30.874Z,23.11
2022-08-05T03:28:06.885Z,23.11
2022-08-05T03:35:46.341Z,23.09
2022-08-05T03:44:09.663Z,23.10
2022-08-05T03:52:38.147Z,23.11
2022-08-05T03:59:20.438Z,23.11
2022-08-05T04:06:56.664Z,23.14
2022-08-05T04:14:32.310Z,23.16
2022-08-05T04:22:11.945Z,23.17
2022-08-05T04:29:46.042Z,23.25
2022-08-05T04:38:00.667Z,23.32
2022-08-05T04:45:31.097Z,23.39
2022-08-05T04:53:16.994Z,23.51
2022-08-05T05:00:51.153Z,23.66
2022-08-05T05:08:26.687Z,23.80
2022-08-05T05:16:06.095Z,23.92
2022-08-05T05:24:04.034Z,24.08
2022-08-05T05:39:10.969Z,24.05
2022-08-05T05:46:45.255Z,24.00
2022-08-05T05:54:49.908Z,23.93
2022-08-05T06:02:17.142Z,23.88
2022-08-05T06:10:10.750Z,23.73
2022-08-05T06:17:52.806Z,23.72
2022-08-05T06:26:12.762Z,23.66
2022-08-05T06:33:33.426Z,23.60
2022-08-05T06:41:19.720Z,23.62
2022-08-05T06:48:59.174Z,23.74
2022-08-05T06:56:35.221Z,23.86
2022-08-05T07:04:09.198Z,23.98
2022-08-05T07:11:51.483Z,24.05
2022-08-05T07:20:10.615Z,23.95
2022-08-05T07:27:21.111Z,23.94
2022-08-05T07:34:57.735Z,23.92
2022-08-05T07:42:34.219Z,23.87
2022-08-05T07:50:10.975Z,23.83
2022-08-05T07:58:02.414Z,23.76
2022-08-05T08:05:39.654Z,23.71
2022-08-05T08:13:15.900Z,23.63
2022-08-05T08:21:03.201Z,23.59
2022-08-05T08:28:58.956Z,23.57
2022-08-05T08:36:49.060Z,23.63
2022-08-05T08:45:25.162Z,23.62
2022-08-05T08:52:26.553Z,23.67
2022-08-05T09:00:01.913Z,23.72
2022-08-05T09:07:39.448Z,23.78
2022-08-05T09:15:31.151Z,23.82
2022-08-05T09:23:09.461Z,23.89
2022-08-05T09:30:52.951Z,24.00
2022-08-05T09:38:27.424Z,24.09
2022-08-05T09:46:08.830Z,24.09
2022-08-05T09:53:53.783Z,24.04
2022-08-05T10:01:32.021Z,23.82
2022-08-05T10:09:27.286Z,23.89
2022-08-05T10:17:37.935Z,23.95
2022-08-05T10:25:09.845Z,23.94
2022-08-05T10:33:00.693Z,23.96
2022-08-05T10:40:43.533Z,23.99
2022-08-05T10:48:56.614Z,23.97
2022-08-05T10:56:45.338Z,23.92
2022-08-05T11:04:26.259Z,23.90
2022-08-05T11:12:00.240Z,24.03
2022-08-05T11:20:17.608Z,24.30
2022-08-05T11:27:50.914Z,24.45
2022-08-05T11:35:44.556Z,24.74
2022-08-05T11:44:05.846Z,25.16
2022-08-05T11:51:44.811Z,25.43
2022-08-05T11:59:26.298Z,25.60
2022-08-05T12:07:01.950Z,25.92
2022-08-05T12:14:43.164Z,26.09
2022-08-05T12:22:20.142Z,26.46
2022-08-05T12:30:03.327Z,26.44
2022-08-05T12:37:37.970Z,26.70
2022-08-05T12:45:13.779Z,26.98
2022-08-05T12:52:56.751Z,27.23
2022-08-05T13:01:59.857Z,27.28
2022-08-05T13:08:32.281Z,27.28
2022-08-05T13:16:15.305Z,27.20
2022-08-05T13:23:52.258Z,27.46
2022-08-05T13:31:34.082Z,27.62
2022-08-05T13:40:13.153Z,27.84
2022-08-05T13:47:34.920Z,27.66
2022-08-05T13:55:10.190Z,27.52
2022-08-05T14:02:45.571Z,27.64
2022-08-05T14:10:28.593Z,27.71
2022-08-05T14:18:05.802Z,27.70
2022-08-05T14:25:54.021Z,27.57
2022-08-05T14:33:56.281Z,27.61
2022-08-05T14:41:24.668Z,27.38
2022-08-05T14:49:04.195Z,27.18
2022-08-05T14:56:44.099Z,26.87
2022-08-05T15:04:22.819Z,26.78
2022-08-05T15:11:58.079Z,26.51
2022-08-05T15:19:33.433Z,26.27
2022-08-05T15:27:08.934Z,25.96
2022-08-05T15:34:44.729Z,25.63
2022-08-05T15:42:53.987Z,25.30
2022-08-05T15:50:15.514Z,24.86
2022-08-05T15:57:50.129Z,24.70
2022-08-05T16:05:28.367Z,24.67
2022-08-05T16:13:02.452Z,24.62
2022-08-05T16:20:38.007Z,24.56
2022-08-05T16:28:11.907Z,24.31
2022-08-05T16:35:53.007Z,23.98
2022-08-05T16:43:30.272Z,23.65
2022-08-05T16:51:10.158Z,23.33
2022-08-05T16:58:44.782Z,23.19
2022-08-05T17:06:20.082Z,22.75
2022-08-05T17:14:00.369Z,22.18
2022-08-05T17:21:42.872Z,21.59
2022-08-05T17:29:39.870Z,21.15
2022-08-05T17:37:39.377Z,20.95
2022-08-05T17:53:14.691Z,20.42
2022-08-05T18:00:50.688Z,20.39
2022-08-05T18:08:26.425Z,20.25
2022-08-05T18:16:00.511Z,20.06
2022-08-05T18:23:45.554Z,19.89
2022-08-05T18:31:20.307Z,19.71
2022-08-05T18:38:55.804Z,19.64
2022-08-05T18:46:29.568Z,19.53
2022-08-05T18:54:06.656Z,19.52
2022-08-05T19:01:48.185Z,19.41
2022-08-05T19:09:40.018Z,19.20
2022-08-05T19:17:14.529Z,19.05
2022-08-05T19:24:54.698Z,18.95
2022-08-05T19:32:30.852Z,18.88
2022-08-05T19:40:10.240Z,18.83
2022-08-05T19:47:44.438Z,18.74
2022-08-05T19:56:14.497Z,18.74
2022-08-05T20:03:13.503Z,18.70
2022-08-05T20:10:49.973Z,18.65
2022-08-05T20:18:36.028Z,18.54
2022-08-05T20:26:16.001Z,18.59
2022-08-05T20:33:50.821Z,18.59
2022-08-05T20:41:27.339Z,18.44
2022-08-05T20:49:24.235Z,18.38
2022-08-05T20:57:00.847Z,18.43
2022-08-05T21:04:37.343Z,18.36
2022-08-05T21:12:12.851Z,18.34
2022-08-05T21:19:52.309Z,18.38
2022-08-05T21:27:28.057Z,18.37
2022-08-05T21:35:29.604Z,18.32
2022-08-05T21:43:05.854Z,18.22
2022-08-05T21:50:42.124Z,18.08
2022-08-05T21:58:32.013Z,18.14
2022-08-05T22:06:08.282Z,18.11
2022-08-05T22:14:05.961Z,18.05
2022-08-05T22:21:37.431Z,18.03
2022-08-05T22:29:14.476Z,17.98
2022-08-05T22:36:48.722Z,17.94
2022-08-05T22:44:23.896Z,17.79
2022-08-05T22:52:04.447Z,17.71
2022-08-05T22:59:51.844Z,17.62
2022-08-05T23:07:28.000Z,17.50
2022-08-05T23:15:08.813Z,17.36
2022-08-05T23:22:43.378Z,17.18
2022-08-05T23:30:26.960Z,17.10
2022-08-05T23:38:03.015Z,16.90
2022-08-05T23:45:39.656Z,16.83
2022-08-05T23:53:22.731Z,16.78
